RNL weather

Public forecast

Using degrees Celsius for public forecast. Weather courtesy of forecast.io.

Closest aviation weather report (METAR) to Rennell/Tingoa Airport

Closest report is Honiara International Airport, 126.4 nm (234.2 km) N. Retrieved 2020/08/11 00:00 UTC (60 minutes ago):

AGGH 110000Z 16004KT 9999 FEW016 FEW017CB SCT028 BKN100 28/24 Q1013 RMK/ SH TO E/SE/S/SW

Aviation forecast (TAF) for Rennell/Tingoa Airport

Forecast is more than 12 hours old.

Retrieved 2020-04-17 00:20 UTC (4 months ago):

TAF AGGR 162320Z 1700/1724 09012KT 9999 SHRA FEW18 BKN030 INTER 1700/1709 5000 TSSH SCT017 FEW016CB BKN027 Q 1013 1011 1010 1012